Disclaimer

Please do not use the information listed here in-flight or in-navigation, as they are not provided to us by the airports but are provided by volunteers, so they might be outdated.

Search


Regions


Airport information page

No radio frequency information is available.

Airport informations:
Latitude: 46° 22' 26.16" N
Longitude: 044° 19' 51.14" E
Elevation: 501 feet - 153 meters
Operating hours: 24 hour operations
Operating agency: Civil government, landing fees and diplomatic clearance may be required
Timezone: UTC+3(+4DT) - Last Sunday in March to last Sunday in October
Fuel: N/A

Runway information:
09/27 - 6562 x 148 feet< - >2000 x 45 meters
09L/27R - 7555 x 280 feet< - >2303 x 85 meters

Recent METARs:
URWI 211600Z AUTO 30004MPS 9999 // NCD M06/M08 Q1018
URWI 211630Z AUTO 28005MPS 9999 // NCD M05/M06 Q1018
URWI 211700Z AUTO 27005MPS 9000 // NCD M06/M06 Q1018

Airport on the map: